sensor_id;sensor_type;location;lat;lon;timestamp;P1;durP1;ratioP1;P2;durP2;ratioP2
67737;SDS011;54534;43.612;1.572;2023-05-29T00:00:24;11.27;;;4.70;;
67737;SDS011;54534;43.612;1.572;2023-05-29T00:02:50;7.73;;;4.37;;
67737;SDS011;54534;43.612;1.572;2023-05-29T00:05:15;8.37;;;4.10;;
67737;SDS011;54534;43.612;1.572;2023-05-29T00:07:41;9.30;;;4.60;;
67737;SDS011;54534;43.612;1.572;2023-05-29T00:10:08;8.63;;;4.47;;
67737;SDS011;54534;43.612;1.572;2023-05-29T00:12:35;9.33;;;4.37;;
67737;SDS011;54534;43.612;1.572;2023-05-29T00:15:01;9.93;;;4.80;;
67737;SDS011;54534;43.612;1.572;2023-05-29T00:17:28;8.50;;;4.27;;
67737;SDS011;54534;43.612;1.572;2023-05-29T00:19:57;12.03;;;4.30;;
67737;SDS011;54534;43.612;1.572;2023-05-29T00:22:23;9.40;;;4.47;;
67737;SDS011;54534;43.612;1.572;2023-05-29T00:24:49;10.37;;;4.20;;
67737;SDS011;54534;43.612;1.572;2023-05-29T00:27:14;9.03;;;3.80;;
67737;SDS011;54534;43.612;1.572;2023-05-29T00:29:40;8.90;;;4.30;;
67737;SDS011;54534;43.612;1.572;2023-05-29T00:32:06;10.60;;;4.23;;
67737;SDS011;54534;43.612;1.572;2023-05-29T00:34:31;8.57;;;4.17;;
67737;SDS011;54534;43.612;1.572;2023-05-29T00:36:58;6.53;;;3.57;;
67737;SDS011;54534;43.612;1.572;2023-05-29T00:39:24;7.93;;;4.23;;
67737;SDS011;54534;43.612;1.572;2023-05-29T00:41:49;7.03;;;3.77;;
67737;SDS011;54534;43.612;1.572;2023-05-29T00:44:19;6.07;;;3.63;;
67737;SDS011;54534;43.612;1.572;2023-05-29T00:46:45;6.15;;;4.15;;
67737;SDS011;54534;43.612;1.572;2023-05-29T00:49:12;8.60;;;3.90;;
67737;SDS011;54534;43.612;1.572;2023-05-29T00:51:38;8.93;;;4.30;;
67737;SDS011;54534;43.612;1.572;2023-05-29T00:54:05;9.27;;;4.47;;
67737;SDS011;54534;43.612;1.572;2023-05-29T00:56:33;6.47;;;3.83;;
67737;SDS011;54534;43.612;1.572;2023-05-29T00:59:00;7.53;;;4.30;;
67737;SDS011;54534;43.612;1.572;2023-05-29T01:01:25;7.37;;;4.07;;
67737;SDS011;54534;43.612;1.572;2023-05-29T01:03:52;7.50;;;3.97;;
67737;SDS011;54534;43.612;1.572;2023-05-29T01:06:23;9.00;;;4.13;;
67737;SDS011;54534;43.612;1.572;2023-05-29T01:08:48;6.20;;;3.50;;
67737;SDS011;54534;43.612;1.572;2023-05-29T01:14:19;8.47;;;3.80;;
67737;SDS011;54534;43.612;1.572;2023-05-29T01:17:11;7.37;;;4.33;;
67737;SDS011;54534;43.612;1.572;2023-05-29T01:19:48;4.13;;;3.10;;
67737;SDS011;54534;43.612;1.572;2023-05-29T01:25:21;7.23;;;3.40;;
67737;SDS011;54534;43.612;1.572;2023-05-29T01:27:54;11.63;;;3.90;;
67737;SDS011;54534;43.612;1.572;2023-05-29T01:30:22;9.73;;;4.73;;
67737;SDS011;54534;43.612;1.572;2023-05-29T01:32:50;7.30;;;3.27;;
67737;SDS011;54534;43.612;1.572;2023-05-29T01:35:16;6.00;;;3.50;;
67737;SDS011;54534;43.612;1.572;2023-05-29T01:37:41;6.00;;;3.80;;
67737;SDS011;54534;43.612;1.572;2023-05-29T01:40:07;6.70;;;3.33;;
67737;SDS011;54534;43.612;1.572;2023-05-29T01:42:33;7.30;;;3.90;;
67737;SDS011;54534;43.612;1.572;2023-05-29T01:44:59;5.43;;;3.30;;
67737;SDS011;54534;43.612;1.572;2023-05-29T01:47:26;5.37;;;3.63;;
67737;SDS011;54534;43.612;1.572;2023-05-29T01:49:52;7.43;;;3.10;;
67737;SDS011;54534;43.612;1.572;2023-05-29T01:52:19;6.23;;;3.20;;
67737;SDS011;54534;43.612;1.572;2023-05-29T01:54:45;7.00;;;4.13;;
67737;SDS011;54534;43.612;1.572;2023-05-29T01:57:10;5.87;;;3.60;;
67737;SDS011;54534;43.612;1.572;2023-05-29T01:59:37;6.30;;;3.27;;
67737;SDS011;54534;43.612;1.572;2023-05-29T02:02:06;6.53;;;3.50;;
67737;SDS011;54534;43.612;1.572;2023-05-29T02:04:32;5.30;;;3.40;;
67737;SDS011;54534;43.612;1.572;2023-05-29T02:06:58;6.03;;;4.00;;
67737;SDS011;54534;43.612;1.572;2023-05-29T02:09:24;4.47;;;3.07;;
67737;SDS011;54534;43.612;1.572;2023-05-29T02:11:50;6.90;;;3.73;;
67737;SDS011;54534;43.612;1.572;2023-05-29T02:14:15;9.17;;;3.80;;
67737;SDS011;54534;43.612;1.572;2023-05-29T02:16:40;6.73;;;3.30;;
67737;SDS011;54534;43.612;1.572;2023-05-29T02:19:08;6.43;;;3.03;;
67737;SDS011;54534;43.612;1.572;2023-05-29T02:21:37;4.67;;;2.97;;
67737;SDS011;54534;43.612;1.572;2023-05-29T02:24:03;8.02;;;3.95;;
67737;SDS011;54534;43.612;1.572;2023-05-29T02:26:29;7.73;;;3.10;;
67737;SDS011;54534;43.612;1.572;2023-05-29T02:28:54;4.17;;;2.90;;
67737;SDS011;54534;43.612;1.572;2023-05-29T02:31:20;6.77;;;3.83;;
67737;SDS011;54534;43.612;1.572;2023-05-29T02:33:45;9.80;;;3.40;;
67737;SDS011;54534;43.612;1.572;2023-05-29T02:36:11;8.00;;;3.67;;
67737;SDS011;54534;43.612;1.572;2023-05-29T02:38:36;7.50;;;3.80;;
67737;SDS011;54534;43.612;1.572;2023-05-29T02:41:02;4.60;;;2.93;;
67737;SDS011;54534;43.612;1.572;2023-05-29T02:43:28;5.07;;;3.20;;
67737;SDS011;54534;43.612;1.572;2023-05-29T02:45:53;5.63;;;3.30;;
67737;SDS011;54534;43.612;1.572;2023-05-29T02:48:18;8.47;;;3.33;;
67737;SDS011;54534;43.612;1.572;2023-05-29T02:50:44;6.57;;;3.57;;
67737;SDS011;54534;43.612;1.572;2023-05-29T02:53:09;6.33;;;3.67;;
67737;SDS011;54534;43.612;1.572;2023-05-29T02:55:35;7.03;;;3.60;;
67737;SDS011;54534;43.612;1.572;2023-05-29T02:58:01;5.10;;;3.37;;
67737;SDS011;54534;43.612;1.572;2023-05-29T03:00:27;6.17;;;3.13;;
67737;SDS011;54534;43.612;1.572;2023-05-29T03:02:53;8.40;;;3.87;;
67737;SDS011;54534;43.612;1.572;2023-05-29T03:05:20;8.03;;;3.57;;
67737;SDS011;54534;43.612;1.572;2023-05-29T03:07:45;6.90;;;3.27;;
67737;SDS011;54534;43.612;1.572;2023-05-29T03:10:11;5.13;;;3.10;;
67737;SDS011;54534;43.612;1.572;2023-05-29T03:15:03;5.03;;;3.10;;
67737;SDS011;54534;43.612;1.572;2023-05-29T03:17:28;7.00;;;3.27;;
67737;SDS011;54534;43.612;1.572;2023-05-29T03:19:54;5.47;;;3.50;;
67737;SDS011;54534;43.612;1.572;2023-05-29T03:22:19;4.60;;;2.90;;
67737;SDS011;54534;43.612;1.572;2023-05-29T03:24:45;5.03;;;3.10;;
67737;SDS011;54534;43.612;1.572;2023-05-29T03:27:10;6.77;;;3.37;;
67737;SDS011;54534;43.612;1.572;2023-05-29T03:29:36;5.07;;;2.83;;
67737;SDS011;54534;43.612;1.572;2023-05-29T03:32:01;6.20;;;3.10;;
67737;SDS011;54534;43.612;1.572;2023-05-29T03:34:27;6.57;;;3.73;;
67737;SDS011;54534;43.612;1.572;2023-05-29T03:36:53;4.80;;;2.97;;
67737;SDS011;54534;43.612;1.572;2023-05-29T03:39:18;5.17;;;2.97;;
67737;SDS011;54534;43.612;1.572;2023-05-29T03:41:44;4.57;;;3.37;;
67737;SDS011;54534;43.612;1.572;2023-05-29T03:44:09;5.80;;;3.43;;
67737;SDS011;54534;43.612;1.572;2023-05-29T03:46:35;6.87;;;3.87;;
67737;SDS011;54534;43.612;1.572;2023-05-29T03:49:00;6.13;;;3.77;;
67737;SDS011;54534;43.612;1.572;2023-05-29T03:51:26;6.30;;;3.40;;
67737;SDS011;54534;43.612;1.572;2023-05-29T03:53:51;4.67;;;2.77;;
67737;SDS011;54534;43.612;1.572;2023-05-29T03:56:16;6.63;;;3.47;;
67737;SDS011;54534;43.612;1.572;2023-05-29T03:58:42;5.37;;;3.40;;
67737;SDS011;54534;43.612;1.572;2023-05-29T04:01:07;5.43;;;3.30;;
67737;SDS011;54534;43.612;1.572;2023-05-29T04:03:34;6.50;;;3.37;;
67737;SDS011;54534;43.612;1.572;2023-05-29T04:06:00;8.07;;;3.67;;
67737;SDS011;54534;43.612;1.572;2023-05-29T04:08:25;4.90;;;3.70;;
67737;SDS011;54534;43.612;1.572;2023-05-29T04:10:51;6.73;;;3.80;;
67737;SDS011;54534;43.612;1.572;2023-05-29T04:13:19;5.30;;;3.00;;
67737;SDS011;54534;43.612;1.572;2023-05-29T04:15:44;8.40;;;3.43;;
67737;SDS011;54534;43.612;1.572;2023-05-29T04:18:10;5.53;;;3.10;;
67737;SDS011;54534;43.612;1.572;2023-05-29T04:20:35;6.03;;;3.53;;
67737;SDS011;54534;43.612;1.572;2023-05-29T04:23:01;7.10;;;3.70;;
67737;SDS011;54534;43.612;1.572;2023-05-29T04:25:26;5.93;;;3.30;;
67737;SDS011;54534;43.612;1.572;2023-05-29T04:27:51;5.90;;;3.20;;
67737;SDS011;54534;43.612;1.572;2023-05-29T04:30:17;6.27;;;3.13;;
67737;SDS011;54534;43.612;1.572;2023-05-29T04:32:42;7.73;;;3.27;;
67737;SDS011;54534;43.612;1.572;2023-05-29T04:35:08;7.83;;;3.40;;
67737;SDS011;54534;43.612;1.572;2023-05-29T04:37:34;6.80;;;3.50;;
67737;SDS011;54534;43.612;1.572;2023-05-29T04:40:06;5.35;;;3.00;;
67737;SDS011;54534;43.612;1.572;2023-05-29T04:42:34;6.77;;;3.57;;
67737;SDS011;54534;43.612;1.572;2023-05-29T04:45:00;6.27;;;3.20;;
67737;SDS011;54534;43.612;1.572;2023-05-29T04:47:26;5.13;;;3.20;;
67737;SDS011;54534;43.612;1.572;2023-05-29T04:49:52;4.83;;;3.00;;
67737;SDS011;54534;43.612;1.572;2023-05-29T04:52:18;6.03;;;3.27;;
67737;SDS011;54534;43.612;1.572;2023-05-29T04:54:46;5.37;;;3.17;;
67737;SDS011;54534;43.612;1.572;2023-05-29T04:57:11;7.70;;;3.67;;
67737;SDS011;54534;43.612;1.572;2023-05-29T04:59:37;15.63;;;4.47;;
67737;SDS011;54534;43.612;1.572;2023-05-29T05:02:02;14.23;;;4.17;;
67737;SDS011;54534;43.612;1.572;2023-05-29T05:04:27;8.03;;;3.57;;
67737;SDS011;54534;43.612;1.572;2023-05-29T05:06:53;19.57;;;4.53;;
67737;SDS011;54534;43.612;1.572;2023-05-29T05:09:18;15.17;;;4.73;;
67737;SDS011;54534;43.612;1.572;2023-05-29T05:11:44;9.53;;;4.00;;
67737;SDS011;54534;43.612;1.572;2023-05-29T05:14:09;10.03;;;3.83;;
67737;SDS011;54534;43.612;1.572;2023-05-29T05:16:35;12.23;;;4.27;;
67737;SDS011;54534;43.612;1.572;2023-05-29T05:19:00;12.67;;;4.47;;
67737;SDS011;54534;43.612;1.572;2023-05-29T05:21:25;9.23;;;4.00;;
67737;SDS011;54534;43.612;1.572;2023-05-29T05:23:51;10.67;;;5.03;;
67737;SDS011;54534;43.612;1.572;2023-05-29T05:26:16;14.77;;;4.60;;
67737;SDS011;54534;43.612;1.572;2023-05-29T05:28:41;13.73;;;5.20;;
67737;SDS011;54534;43.612;1.572;2023-05-29T05:31:08;9.90;;;4.40;;
67737;SDS011;54534;43.612;1.572;2023-05-29T05:33:33;12.37;;;4.80;;
67737;SDS011;54534;43.612;1.572;2023-05-29T05:35:59;10.50;;;4.93;;
67737;SDS011;54534;43.612;1.572;2023-05-29T05:38:24;8.27;;;4.50;;
67737;SDS011;54534;43.612;1.572;2023-05-29T05:40:50;9.57;;;4.27;;
67737;SDS011;54534;43.612;1.572;2023-05-29T05:43:15;6.87;;;3.83;;
67737;SDS011;54534;43.612;1.572;2023-05-29T05:45:40;11.10;;;5.00;;
67737;SDS011;54534;43.612;1.572;2023-05-29T05:48:07;11.63;;;5.13;;
67737;SDS011;54534;43.612;1.572;2023-05-29T05:50:33;7.77;;;3.87;;
67737;SDS011;54534;43.612;1.572;2023-05-29T05:52:59;10.73;;;4.40;;
67737;SDS011;54534;43.612;1.572;2023-05-29T05:55:25;13.30;;;5.27;;
67737;SDS011;54534;43.612;1.572;2023-05-29T05:57:52;12.57;;;4.97;;
67737;SDS011;54534;43.612;1.572;2023-05-29T06:00:18;16.60;;;5.90;;
67737;SDS011;54534;43.612;1.572;2023-05-29T06:02:44;10.77;;;4.37;;
67737;SDS011;54534;43.612;1.572;2023-05-29T06:05:10;14.83;;;5.10;;
67737;SDS011;54534;43.612;1.572;2023-05-29T06:07:36;13.33;;;4.53;;
67737;SDS011;54534;43.612;1.572;2023-05-29T06:10:02;19.23;;;5.17;;
67737;SDS011;54534;43.612;1.572;2023-05-29T06:12:28;13.73;;;4.83;;
67737;SDS011;54534;43.612;1.572;2023-05-29T06:14:54;55.97;;;5.97;;
67737;SDS011;54534;43.612;1.572;2023-05-29T06:17:20;33.07;;;6.27;;
67737;SDS011;54534;43.612;1.572;2023-05-29T06:19:46;14.93;;;5.17;;
67737;SDS011;54534;43.612;1.572;2023-05-29T06:22:11;18.93;;;5.77;;
67737;SDS011;54534;43.612;1.572;2023-05-29T06:24:37;15.30;;;4.63;;
67737;SDS011;54534;43.612;1.572;2023-05-29T06:27:03;13.67;;;5.77;;
67737;SDS011;54534;43.612;1.572;2023-05-29T06:29:28;15.83;;;5.43;;
67737;SDS011;54534;43.612;1.572;2023-05-29T06:31:54;9.93;;;4.63;;
67737;SDS011;54534;43.612;1.572;2023-05-29T06:34:19;19.97;;;5.13;;
67737;SDS011;54534;43.612;1.572;2023-05-29T06:36:44;11.13;;;4.60;;
67737;SDS011;54534;43.612;1.572;2023-05-29T06:39:10;14.77;;;5.00;;
67737;SDS011;54534;43.612;1.572;2023-05-29T06:41:35;12.17;;;4.80;;
67737;SDS011;54534;43.612;1.572;2023-05-29T06:44:01;26.37;;;4.93;;
67737;SDS011;54534;43.612;1.572;2023-05-29T06:46:26;24.40;;;4.67;;
67737;SDS011;54534;43.612;1.572;2023-05-29T06:48:51;18.30;;;4.60;;
67737;SDS011;54534;43.612;1.572;2023-05-29T06:51:17;34.77;;;6.10;;
67737;SDS011;54534;43.612;1.572;2023-05-29T06:53:42;22.17;;;5.37;;
67737;SDS011;54534;43.612;1.572;2023-05-29T06:56:08;31.50;;;5.10;;
67737;SDS011;54534;43.612;1.572;2023-05-29T06:58:33;20.13;;;5.13;;
67737;SDS011;54534;43.612;1.572;2023-05-29T07:00:59;25.57;;;5.47;;
67737;SDS011;54534;43.612;1.572;2023-05-29T07:03:25;27.80;;;5.90;;
67737;SDS011;54534;43.612;1.572;2023-05-29T07:05:51;14.23;;;4.60;;
67737;SDS011;54534;43.612;1.572;2023-05-29T07:08:17;11.77;;;4.30;;
67737;SDS011;54534;43.612;1.572;2023-05-29T07:10:42;14.63;;;4.80;;
67737;SDS011;54534;43.612;1.572;2023-05-29T07:13:07;12.57;;;3.87;;
67737;SDS011;54534;43.612;1.572;2023-05-29T07:15:33;15.70;;;4.90;;
67737;SDS011;54534;43.612;1.572;2023-05-29T07:17:59;11.37;;;4.70;;
67737;SDS011;54534;43.612;1.572;2023-05-29T07:20:25;14.07;;;4.97;;
67737;SDS011;54534;43.612;1.572;2023-05-29T07:22:50;16.47;;;4.93;;
67737;SDS011;54534;43.612;1.572;2023-05-29T07:25:15;12.10;;;4.60;;
67737;SDS011;54534;43.612;1.572;2023-05-29T07:27:41;16.93;;;4.80;;
67737;SDS011;54534;43.612;1.572;2023-05-29T07:30:06;13.67;;;4.13;;
67737;SDS011;54534;43.612;1.572;2023-05-29T07:32:32;12.17;;;4.23;;
67737;SDS011;54534;43.612;1.572;2023-05-29T07:34:58;13.07;;;4.60;;
67737;SDS011;54534;43.612;1.572;2023-05-29T07:37:24;15.90;;;4.70;;
67737;SDS011;54534;43.612;1.572;2023-05-29T07:39:49;17.57;;;4.60;;
67737;SDS011;54534;43.612;1.572;2023-05-29T07:42:15;11.10;;;3.80;;
67737;SDS011;54534;43.612;1.572;2023-05-29T07:44:40;13.13;;;4.07;;
67737;SDS011;54534;43.612;1.572;2023-05-29T07:47:09;13.93;;;4.40;;
67737;SDS011;54534;43.612;1.572;2023-05-29T07:49:35;12.53;;;4.47;;
67737;SDS011;54534;43.612;1.572;2023-05-29T07:52:01;9.73;;;4.10;;
67737;SDS011;54534;43.612;1.572;2023-05-29T07:54:27;10.23;;;4.00;;
67737;SDS011;54534;43.612;1.572;2023-05-29T07:56:52;11.20;;;4.03;;
67737;SDS011;54534;43.612;1.572;2023-05-29T07:59:18;12.37;;;4.00;;
67737;SDS011;54534;43.612;1.572;2023-05-29T08:01:43;10.37;;;4.10;;
67737;SDS011;54534;43.612;1.572;2023-05-29T08:04:09;16.70;;;4.43;;
67737;SDS011;54534;43.612;1.572;2023-05-29T08:06:34;6.33;;;3.37;;
67737;SDS011;54534;43.612;1.572;2023-05-29T08:09:01;8.17;;;4.37;;
67737;SDS011;54534;43.612;1.572;2023-05-29T08:11:27;13.93;;;4.40;;
67737;SDS011;54534;43.612;1.572;2023-05-29T08:13:52;7.30;;;4.37;;
67737;SDS011;54534;43.612;1.572;2023-05-29T08:16:18;9.63;;;3.20;;
67737;SDS011;54534;43.612;1.572;2023-05-29T08:18:43;8.63;;;3.97;;
67737;SDS011;54534;43.612;1.572;2023-05-29T08:21:09;5.90;;;3.43;;
67737;SDS011;54534;43.612;1.572;2023-05-29T08:23:35;6.80;;;3.37;;
67737;SDS011;54534;43.612;1.572;2023-05-29T08:26:00;6.03;;;3.03;;
67737;SDS011;54534;43.612;1.572;2023-05-29T08:28:27;7.33;;;3.70;;
67737;SDS011;54534;43.612;1.572;2023-05-29T08:30:53;9.27;;;4.03;;
67737;SDS011;54534;43.612;1.572;2023-05-29T08:33:18;7.53;;;4.23;;
67737;SDS011;54534;43.612;1.572;2023-05-29T08:35:43;11.07;;;3.80;;
67737;SDS011;54534;43.612;1.572;2023-05-29T08:38:09;8.80;;;3.43;;
67737;SDS011;54534;43.612;1.572;2023-05-29T08:40:34;10.83;;;4.33;;
67737;SDS011;54534;43.612;1.572;2023-05-29T08:43:02;7.27;;;3.50;;
67737;SDS011;54534;43.612;1.572;2023-05-29T08:45:32;8.87;;;3.50;;
67737;SDS011;54534;43.612;1.572;2023-05-29T08:47:59;8.00;;;3.40;;
67737;SDS011;54534;43.612;1.572;2023-05-29T08:50:26;7.57;;;3.63;;
67737;SDS011;54534;43.612;1.572;2023-05-29T08:52:51;6.57;;;3.53;;
67737;SDS011;54534;43.612;1.572;2023-05-29T08:55:17;5.37;;;3.40;;
67737;SDS011;54534;43.612;1.572;2023-05-29T08:57:43;10.77;;;3.87;;
67737;SDS011;54534;43.612;1.572;2023-05-29T09:00:09;9.07;;;4.03;;
67737;SDS011;54534;43.612;1.572;2023-05-29T09:02:40;6.27;;;3.30;;
67737;SDS011;54534;43.612;1.572;2023-05-29T09:05:06;7.18;;;3.15;;
67737;SDS011;54534;43.612;1.572;2023-05-29T09:07:33;5.97;;;3.57;;
67737;SDS011;54534;43.612;1.572;2023-05-29T09:09:59;5.80;;;3.20;;
67737;SDS011;54534;43.612;1.572;2023-05-29T09:12:25;7.60;;;3.47;;
67737;SDS011;54534;43.612;1.572;2023-05-29T09:14:51;5.37;;;3.00;;
67737;SDS011;54534;43.612;1.572;2023-05-29T09:17:17;6.77;;;3.27;;
67737;SDS011;54534;43.612;1.572;2023-05-29T09:19:42;5.83;;;3.23;;
67737;SDS011;54534;43.612;1.572;2023-05-29T09:22:10;5.40;;;3.30;;
67737;SDS011;54534;43.612;1.572;2023-05-29T09:24:39;4.03;;;3.00;;
67737;SDS011;54534;43.612;1.572;2023-05-29T09:27:06;5.33;;;3.03;;
67737;SDS011;54534;43.612;1.572;2023-05-29T09:29:36;6.50;;;3.47;;
67737;SDS011;54534;43.612;1.572;2023-05-29T09:32:06;10.20;;;3.80;;
67737;SDS011;54534;43.612;1.572;2023-05-29T09:34:33;5.03;;;3.37;;
67737;SDS011;54534;43.612;1.572;2023-05-29T09:37:03;6.07;;;3.17;;
67737;SDS011;54534;43.612;1.572;2023-05-29T09:39:46;6.23;;;3.53;;
67737;SDS011;54534;43.612;1.572;2023-05-29T09:42:13;5.22;;;3.00;;
67737;SDS011;54534;43.612;1.572;2023-05-29T09:44:40;5.17;;;3.10;;
67737;SDS011;54534;43.612;1.572;2023-05-29T09:47:05;9.73;;;3.10;;
67737;SDS011;54534;43.612;1.572;2023-05-29T09:49:31;5.13;;;3.50;;
67737;SDS011;54534;43.612;1.572;2023-05-29T09:51:57;6.57;;;3.17;;
67737;SDS011;54534;43.612;1.572;2023-05-29T09:54:24;5.77;;;3.23;;
67737;SDS011;54534;43.612;1.572;2023-05-29T09:59:20;4.57;;;3.10;;
67737;SDS011;54534;43.612;1.572;2023-05-29T10:01:49;6.30;;;3.17;;
67737;SDS011;54534;43.612;1.572;2023-05-29T10:04:26;6.60;;;3.33;;
67737;SDS011;54534;43.612;1.572;2023-05-29T10:06:52;4.70;;;3.00;;
67737;SDS011;54534;43.612;1.572;2023-05-29T10:09:21;4.72;;;3.15;;
67737;SDS011;54534;43.612;1.572;2023-05-29T10:11:51;4.40;;;2.70;;
67737;SDS011;54534;43.612;1.572;2023-05-29T10:14:20;5.55;;;3.20;;
67737;SDS011;54534;43.612;1.572;2023-05-29T10:16:49;3.67;;;3.07;;
67737;SDS011;54534;43.612;1.572;2023-05-29T10:19:19;4.93;;;2.90;;
67737;SDS011;54534;43.612;1.572;2023-05-29T10:21:49;3.77;;;3.10;;
67737;SDS011;54534;43.612;1.572;2023-05-29T10:24:18;5.03;;;2.97;;
67737;SDS011;54534;43.612;1.572;2023-05-29T10:26:44;4.10;;;3.20;;
67737;SDS011;54534;43.612;1.572;2023-05-29T10:29:15;4.88;;;3.00;;
67737;SDS011;54534;43.612;1.572;2023-05-29T10:39:48;3.92;;;2.95;;
67737;SDS011;54534;43.612;1.572;2023-05-29T10:45:04;3.80;;;2.57;;
67737;SDS011;54534;43.612;1.572;2023-05-29T10:47:30;5.10;;;2.80;;
67737;SDS011;54534;43.612;1.572;2023-05-29T10:50:02;6.47;;;3.13;;
67737;SDS011;54534;43.612;1.572;2023-05-29T10:52:31;3.07;;;2.53;;
67737;SDS011;54534;43.612;1.572;2023-05-29T10:55:00;3.60;;;3.10;;
67737;SDS011;54534;43.612;1.572;2023-05-29T10:57:29;4.47;;;3.03;;
67737;SDS011;54534;43.612;1.572;2023-05-29T10:59:58;5.07;;;2.70;;
67737;SDS011;54534;43.612;1.572;2023-05-29T11:02:24;3.53;;;2.60;;
67737;SDS011;54534;43.612;1.572;2023-05-29T11:05:17;6.83;;;3.13;;
67737;SDS011;54534;43.612;1.572;2023-05-29T11:07:55;6.73;;;3.53;;
67737;SDS011;54534;43.612;1.572;2023-05-29T11:13:36;6.63;;;3.30;;
67737;SDS011;54534;43.612;1.572;2023-05-29T11:16:19;5.40;;;2.80;;
67737;SDS011;54534;43.612;1.572;2023-05-29T11:19:07;4.25;;;3.60;;
67737;SDS011;54534;43.612;1.572;2023-05-29T11:24:01;5.13;;;3.27;;
67737;SDS011;54534;43.612;1.572;2023-05-29T11:26:28;4.67;;;3.10;;
67737;SDS011;54534;43.612;1.572;2023-05-29T11:28:58;4.67;;;2.90;;
67737;SDS011;54534;43.612;1.572;2023-05-29T11:31:29;4.53;;;3.27;;
67737;SDS011;54534;43.612;1.572;2023-05-29T11:33:58;3.87;;;3.20;;
67737;SDS011;54534;43.612;1.572;2023-05-29T11:36:25;4.37;;;3.10;;
67737;SDS011;54534;43.612;1.572;2023-05-29T11:38:51;5.00;;;3.60;;
67737;SDS011;54534;43.612;1.572;2023-05-29T11:41:17;4.57;;;3.17;;
67737;SDS011;54534;43.612;1.572;2023-05-29T11:43:43;5.73;;;3.07;;
67737;SDS011;54534;43.612;1.572;2023-05-29T11:46:18;6.70;;;3.30;;
67737;SDS011;54534;43.612;1.572;2023-05-29T11:48:47;3.23;;;2.67;;
67737;SDS011;54534;43.612;1.572;2023-05-29T11:51:13;4.45;;;2.67;;
67737;SDS011;54534;43.612;1.572;2023-05-29T11:53:42;4.30;;;3.10;;
67737;SDS011;54534;43.612;1.572;2023-05-29T11:56:08;4.75;;;2.50;;
67737;SDS011;54534;43.612;1.572;2023-05-29T11:58:38;3.72;;;2.85;;
67737;SDS011;54534;43.612;1.572;2023-05-29T12:01:07;3.60;;;3.03;;
67737;SDS011;54534;43.612;1.572;2023-05-29T12:03:39;3.53;;;2.57;;
67737;SDS011;54534;43.612;1.572;2023-05-29T12:06:06;3.63;;;2.90;;
67737;SDS011;54534;43.612;1.572;2023-05-29T12:08:33;3.33;;;2.87;;
67737;SDS011;54534;43.612;1.572;2023-05-29T12:10:59;5.63;;;2.93;;
67737;SDS011;54534;43.612;1.572;2023-05-29T12:13:24;4.67;;;2.50;;
67737;SDS011;54534;43.612;1.572;2023-05-29T12:15:52;3.17;;;2.57;;
67737;SDS011;54534;43.612;1.572;2023-05-29T12:18:19;4.68;;;2.80;;
67737;SDS011;54534;43.612;1.572;2023-05-29T12:20:45;3.80;;;2.87;;
67737;SDS011;54534;43.612;1.572;2023-05-29T12:23:10;5.90;;;3.27;;
67737;SDS011;54534;43.612;1.572;2023-05-29T12:25:39;4.03;;;2.60;;
67737;SDS011;54534;43.612;1.572;2023-05-29T12:28:05;2.73;;;2.53;;
67737;SDS011;54534;43.612;1.572;2023-05-29T12:30:30;4.70;;;3.30;;
67737;SDS011;54534;43.612;1.572;2023-05-29T12:32:56;2.83;;;2.47;;
67737;SDS011;54534;43.612;1.572;2023-05-29T12:35:23;4.30;;;3.03;;
67737;SDS011;54534;43.612;1.572;2023-05-29T12:40:22;5.17;;;3.13;;
67737;SDS011;54534;43.612;1.572;2023-05-29T12:43:08;3.73;;;2.50;;
67737;SDS011;54534;43.612;1.572;2023-05-29T12:45:36;3.13;;;2.80;;
67737;SDS011;54534;43.612;1.572;2023-05-29T12:48:02;4.57;;;2.97;;
67737;SDS011;54534;43.612;1.572;2023-05-29T12:50:31;4.67;;;3.27;;
67737;SDS011;54534;43.612;1.572;2023-05-29T12:55:25;3.40;;;2.83;;
67737;SDS011;54534;43.612;1.572;2023-05-29T12:57:52;5.47;;;2.60;;
67737;SDS011;54534;43.612;1.572;2023-05-29T13:00:18;3.50;;;2.90;;
67737;SDS011;54534;43.612;1.572;2023-05-29T13:02:45;6.50;;;2.80;;
67737;SDS011;54534;43.612;1.572;2023-05-29T13:05:12;3.60;;;2.50;;
67737;SDS011;54534;43.612;1.572;2023-05-29T13:07:37;3.70;;;2.93;;
67737;SDS011;54534;43.612;1.572;2023-05-29T13:10:03;5.57;;;2.80;;
67737;SDS011;54534;43.612;1.572;2023-05-29T13:12:28;5.47;;;2.83;;
67737;SDS011;54534;43.612;1.572;2023-05-29T13:14:54;4.00;;;2.90;;
67737;SDS011;54534;43.612;1.572;2023-05-29T13:17:22;3.43;;;2.73;;
67737;SDS011;54534;43.612;1.572;2023-05-29T13:19:47;3.20;;;2.63;;
67737;SDS011;54534;43.612;1.572;2023-05-29T13:22:13;3.23;;;2.50;;
67737;SDS011;54534;43.612;1.572;2023-05-29T13:24:39;4.30;;;2.60;;
67737;SDS011;54534;43.612;1.572;2023-05-29T13:27:04;4.07;;;2.67;;
67737;SDS011;54534;43.612;1.572;2023-05-29T13:29:30;4.67;;;3.07;;
67737;SDS011;54534;43.612;1.572;2023-05-29T13:31:56;4.27;;;3.10;;
67737;SDS011;54534;43.612;1.572;2023-05-29T13:34:21;4.23;;;2.53;;
67737;SDS011;54534;43.612;1.572;2023-05-29T13:36:49;2.93;;;2.53;;
67737;SDS011;54534;43.612;1.572;2023-05-29T13:39:14;3.10;;;2.50;;
67737;SDS011;54534;43.612;1.572;2023-05-29T13:41:40;3.30;;;2.63;;
67737;SDS011;54534;43.612;1.572;2023-05-29T13:44:05;5.33;;;2.63;;
67737;SDS011;54534;43.612;1.572;2023-05-29T13:46:31;3.80;;;2.50;;
67737;SDS011;54534;43.612;1.572;2023-05-29T13:48:56;4.53;;;3.03;;
67737;SDS011;54534;43.612;1.572;2023-05-29T13:51:21;3.63;;;2.80;;
67737;SDS011;54534;43.612;1.572;2023-05-29T13:53:47;2.50;;;2.30;;
67737;SDS011;54534;43.612;1.572;2023-05-29T13:56:12;3.40;;;2.50;;
67737;SDS011;54534;43.612;1.572;2023-05-29T13:58:37;2.93;;;2.57;;
67737;SDS011;54534;43.612;1.572;2023-05-29T14:01:03;4.27;;;3.07;;
67737;SDS011;54534;43.612;1.572;2023-05-29T14:03:28;2.83;;;2.37;;
67737;SDS011;54534;43.612;1.572;2023-05-29T14:05:54;3.07;;;2.70;;
67737;SDS011;54534;43.612;1.572;2023-05-29T14:08:20;3.90;;;2.67;;
67737;SDS011;54534;43.612;1.572;2023-05-29T14:10:45;4.37;;;2.63;;
67737;SDS011;54534;43.612;1.572;2023-05-29T14:13:11;5.60;;;3.07;;
67737;SDS011;54534;43.612;1.572;2023-05-29T14:15:36;5.67;;;2.87;;
67737;SDS011;54534;43.612;1.572;2023-05-29T14:18:02;3.93;;;3.13;;
67737;SDS011;54534;43.612;1.572;2023-05-29T14:20:28;3.80;;;2.80;;
67737;SDS011;54534;43.612;1.572;2023-05-29T14:22:54;4.13;;;2.57;;
67737;SDS011;54534;43.612;1.572;2023-05-29T14:25:19;2.90;;;2.60;;
67737;SDS011;54534;43.612;1.572;2023-05-29T14:27:45;5.37;;;2.70;;
67737;SDS011;54534;43.612;1.572;2023-05-29T14:30:10;4.67;;;2.60;;
67737;SDS011;54534;43.612;1.572;2023-05-29T14:32:36;4.97;;;2.70;;
67737;SDS011;54534;43.612;1.572;2023-05-29T14:35:01;5.23;;;3.03;;
67737;SDS011;54534;43.612;1.572;2023-05-29T14:37:27;5.17;;;2.40;;
67737;SDS011;54534;43.612;1.572;2023-05-29T14:39:52;3.10;;;2.70;;
67737;SDS011;54534;43.612;1.572;2023-05-29T14:42:17;7.90;;;3.10;;
67737;SDS011;54534;43.612;1.572;2023-05-29T14:44:43;4.03;;;2.60;;
67737;SDS011;54534;43.612;1.572;2023-05-29T14:47:08;6.50;;;2.80;;
67737;SDS011;54534;43.612;1.572;2023-05-29T14:49:35;3.90;;;2.70;;
67737;SDS011;54534;43.612;1.572;2023-05-29T14:52:01;4.93;;;2.83;;
67737;SDS011;54534;43.612;1.572;2023-05-29T14:54:29;4.63;;;2.67;;
67737;SDS011;54534;43.612;1.572;2023-05-29T14:56:54;4.73;;;2.70;;
67737;SDS011;54534;43.612;1.572;2023-05-29T14:59:20;4.50;;;2.87;;
67737;SDS011;54534;43.612;1.572;2023-05-29T15:01:46;4.37;;;2.80;;
67737;SDS011;54534;43.612;1.572;2023-05-29T15:04:11;3.77;;;2.93;;
67737;SDS011;54534;43.612;1.572;2023-05-29T15:06:37;3.30;;;3.00;;
67737;SDS011;54534;43.612;1.572;2023-05-29T15:09:02;4.57;;;2.70;;
67737;SDS011;54534;43.612;1.572;2023-05-29T15:11:30;4.43;;;2.80;;
67737;SDS011;54534;43.612;1.572;2023-05-29T15:13:56;4.67;;;3.17;;